sensor_id;sensor_type;location;lat;lon;timestamp;P1;durP1;ratioP1;P2;durP2;ratioP2
71253;SDS011;59019;47.638;18.966;2023-06-14T00:00:30;4.72;;;1.88;;
71253;SDS011;59019;47.638;18.966;2023-06-14T00:03:17;6.22;;;2.30;;
71253;SDS011;59019;47.638;18.966;2023-06-14T00:06:02;6.03;;;2.33;;
71253;SDS011;59019;47.638;18.966;2023-06-14T00:08:48;5.65;;;1.90;;
71253;SDS011;59019;47.638;18.966;2023-06-14T00:11:34;4.88;;;2.10;;
71253;SDS011;59019;47.638;18.966;2023-06-14T00:14:20;4.65;;;1.95;;
71253;SDS011;59019;47.638;18.966;2023-06-14T00:17:06;5.82;;;1.98;;
71253;SDS011;59019;47.638;18.966;2023-06-14T00:19:52;5.00;;;1.93;;
71253;SDS011;59019;47.638;18.966;2023-06-14T00:22:39;4.65;;;2.30;;
71253;SDS011;59019;47.638;18.966;2023-06-14T00:25:25;5.78;;;2.17;;
71253;SDS011;59019;47.638;18.966;2023-06-14T00:28:11;4.82;;;2.25;;
71253;SDS011;59019;47.638;18.966;2023-06-14T00:30:57;5.00;;;1.73;;
71253;SDS011;59019;47.638;18.966;2023-06-14T00:33:43;4.80;;;2.03;;
71253;SDS011;59019;47.638;18.966;2023-06-14T00:36:29;4.47;;;1.90;;
71253;SDS011;59019;47.638;18.966;2023-06-14T00:39:15;4.63;;;2.13;;
71253;SDS011;59019;47.638;18.966;2023-06-14T00:42:01;5.80;;;2.08;;
71253;SDS011;59019;47.638;18.966;2023-06-14T00:44:47;5.05;;;2.10;;
71253;SDS011;59019;47.638;18.966;2023-06-14T00:47:32;5.27;;;2.13;;
71253;SDS011;59019;47.638;18.966;2023-06-14T00:50:20;4.80;;;2.03;;
71253;SDS011;59019;47.638;18.966;2023-06-14T00:53:08;4.35;;;1.77;;
71253;SDS011;59019;47.638;18.966;2023-06-14T00:55:54;9.77;;;2.67;;
71253;SDS011;59019;47.638;18.966;2023-06-14T00:58:40;6.22;;;2.58;;
71253;SDS011;59019;47.638;18.966;2023-06-14T01:01:27;5.97;;;2.40;;
71253;SDS011;59019;47.638;18.966;2023-06-14T01:04:14;5.32;;;2.22;;
71253;SDS011;59019;47.638;18.966;2023-06-14T01:07:02;4.80;;;2.17;;
71253;SDS011;59019;47.638;18.966;2023-06-14T01:16:07;5.37;;;2.50;;
71253;SDS011;59019;47.638;18.966;2023-06-14T01:18:53;6.72;;;2.55;;
71253;SDS011;59019;47.638;18.966;2023-06-14T01:21:41;5.68;;;2.33;;
71253;SDS011;59019;47.638;18.966;2023-06-14T01:24:27;6.65;;;2.40;;
71253;SDS011;59019;47.638;18.966;2023-06-14T01:27:17;5.50;;;2.55;;
71253;SDS011;59019;47.638;18.966;2023-06-14T01:30:04;4.30;;;2.00;;
71253;SDS011;59019;47.638;18.966;2023-06-14T01:32:51;4.97;;;1.98;;
71253;SDS011;59019;47.638;18.966;2023-06-14T01:35:39;6.45;;;2.60;;
71253;SDS011;59019;47.638;18.966;2023-06-14T01:38:26;6.20;;;2.95;;
71253;SDS011;59019;47.638;18.966;2023-06-14T01:41:13;5.40;;;2.17;;
71253;SDS011;59019;47.638;18.966;2023-06-14T01:44:00;4.80;;;2.17;;
71253;SDS011;59019;47.638;18.966;2023-06-14T01:46:47;8.15;;;2.28;;
71253;SDS011;59019;47.638;18.966;2023-06-14T01:49:34;5.05;;;2.33;;
71253;SDS011;59019;47.638;18.966;2023-06-14T01:52:20;4.82;;;2.17;;
71253;SDS011;59019;47.638;18.966;2023-06-14T01:55:07;11.50;;;2.38;;
71253;SDS011;59019;47.638;18.966;2023-06-14T01:57:54;4.77;;;2.37;;
71253;SDS011;59019;47.638;18.966;2023-06-14T02:00:40;6.57;;;2.70;;
71253;SDS011;59019;47.638;18.966;2023-06-14T02:03:28;6.03;;;2.40;;
71253;SDS011;59019;47.638;18.966;2023-06-14T02:06:15;8.13;;;2.30;;
71253;SDS011;59019;47.638;18.966;2023-06-14T02:09:01;4.97;;;2.35;;
71253;SDS011;59019;47.638;18.966;2023-06-14T02:11:48;7.07;;;2.90;;
71253;SDS011;59019;47.638;18.966;2023-06-14T02:14:34;6.07;;;2.13;;
71253;SDS011;59019;47.638;18.966;2023-06-14T02:17:19;7.45;;;2.17;;
71253;SDS011;59019;47.638;18.966;2023-06-14T02:20:06;5.35;;;2.30;;
71253;SDS011;59019;47.638;18.966;2023-06-14T02:22:53;5.63;;;2.33;;
71253;SDS011;59019;47.638;18.966;2023-06-14T02:25:39;6.33;;;2.30;;
71253;SDS011;59019;47.638;18.966;2023-06-14T02:28:25;5.30;;;2.17;;
71253;SDS011;59019;47.638;18.966;2023-06-14T02:31:11;5.70;;;2.42;;
71253;SDS011;59019;47.638;18.966;2023-06-14T02:33:57;5.40;;;2.38;;
71253;SDS011;59019;47.638;18.966;2023-06-14T02:36:43;6.93;;;2.70;;
71253;SDS011;59019;47.638;18.966;2023-06-14T02:39:29;6.73;;;2.50;;
71253;SDS011;59019;47.638;18.966;2023-06-14T02:42:15;6.28;;;2.45;;
71253;SDS011;59019;47.638;18.966;2023-06-14T02:45:01;6.47;;;2.42;;
71253;SDS011;59019;47.638;18.966;2023-06-14T02:47:47;7.38;;;3.33;;
71253;SDS011;59019;47.638;18.966;2023-06-14T02:50:33;5.78;;;2.20;;
71253;SDS011;59019;47.638;18.966;2023-06-14T02:53:19;6.73;;;3.13;;
71253;SDS011;59019;47.638;18.966;2023-06-14T02:56:05;7.90;;;2.92;;
71253;SDS011;59019;47.638;18.966;2023-06-14T02:58:51;5.82;;;2.58;;
71253;SDS011;59019;47.638;18.966;2023-06-14T03:01:38;5.95;;;2.65;;
71253;SDS011;59019;47.638;18.966;2023-06-14T03:04:26;7.85;;;3.00;;
71253;SDS011;59019;47.638;18.966;2023-06-14T03:07:12;5.53;;;2.60;;
71253;SDS011;59019;47.638;18.966;2023-06-14T03:09:59;6.15;;;2.67;;
71253;SDS011;59019;47.638;18.966;2023-06-14T03:12:45;6.72;;;2.78;;
71253;SDS011;59019;47.638;18.966;2023-06-14T03:15:30;6.25;;;2.80;;
71253;SDS011;59019;47.638;18.966;2023-06-14T03:18:18;7.13;;;2.90;;
71253;SDS011;59019;47.638;18.966;2023-06-14T03:21:07;5.60;;;2.50;;
71253;SDS011;59019;47.638;18.966;2023-06-14T03:23:54;7.60;;;2.80;;
71253;SDS011;59019;47.638;18.966;2023-06-14T03:26:40;5.75;;;2.20;;
71253;SDS011;59019;47.638;18.966;2023-06-14T03:29:26;6.32;;;2.75;;
71253;SDS011;59019;47.638;18.966;2023-06-14T03:32:12;6.70;;;2.70;;
71253;SDS011;59019;47.638;18.966;2023-06-14T03:34:58;6.17;;;2.47;;
71253;SDS011;59019;47.638;18.966;2023-06-14T03:37:44;6.47;;;2.85;;
71253;SDS011;59019;47.638;18.966;2023-06-14T03:40:31;7.53;;;3.22;;
71253;SDS011;59019;47.638;18.966;2023-06-14T03:43:17;6.85;;;3.00;;
71253;SDS011;59019;47.638;18.966;2023-06-14T03:46:02;7.28;;;3.15;;
71253;SDS011;59019;47.638;18.966;2023-06-14T03:48:48;6.70;;;3.20;;
71253;SDS011;59019;47.638;18.966;2023-06-14T03:51:34;7.55;;;2.97;;
71253;SDS011;59019;47.638;18.966;2023-06-14T03:54:20;6.00;;;2.85;;
71253;SDS011;59019;47.638;18.966;2023-06-14T03:57:07;6.10;;;2.78;;
71253;SDS011;59019;47.638;18.966;2023-06-14T03:59:52;6.28;;;2.80;;
71253;SDS011;59019;47.638;18.966;2023-06-14T04:02:38;6.67;;;2.83;;
71253;SDS011;59019;47.638;18.966;2023-06-14T04:05:24;6.53;;;2.85;;
71253;SDS011;59019;47.638;18.966;2023-06-14T04:08:11;7.22;;;3.20;;
71253;SDS011;59019;47.638;18.966;2023-06-14T04:11:00;8.68;;;3.40;;
71253;SDS011;59019;47.638;18.966;2023-06-14T04:13:46;8.13;;;3.58;;
71253;SDS011;59019;47.638;18.966;2023-06-14T04:16:32;8.27;;;3.70;;
71253;SDS011;59019;47.638;18.966;2023-06-14T04:19:18;8.02;;;3.42;;
71253;SDS011;59019;47.638;18.966;2023-06-14T04:22:04;6.95;;;3.00;;
71253;SDS011;59019;47.638;18.966;2023-06-14T04:24:50;9.32;;;3.92;;
71253;SDS011;59019;47.638;18.966;2023-06-14T04:27:38;8.38;;;4.00;;
71253;SDS011;59019;47.638;18.966;2023-06-14T04:30:23;9.73;;;3.53;;
71253;SDS011;59019;47.638;18.966;2023-06-14T04:33:12;8.65;;;4.15;;
71253;SDS011;59019;47.638;18.966;2023-06-14T04:35:58;9.23;;;3.97;;
71253;SDS011;59019;47.638;18.966;2023-06-14T04:38:46;7.50;;;3.60;;
71253;SDS011;59019;47.638;18.966;2023-06-14T04:41:32;6.72;;;3.53;;
71253;SDS011;59019;47.638;18.966;2023-06-14T04:44:18;8.37;;;4.10;;
71253;SDS011;59019;47.638;18.966;2023-06-14T04:47:05;7.38;;;3.47;;
71253;SDS011;59019;47.638;18.966;2023-06-14T04:49:52;8.35;;;3.63;;
71253;SDS011;59019;47.638;18.966;2023-06-14T04:52:38;8.20;;;3.80;;
71253;SDS011;59019;47.638;18.966;2023-06-14T04:55:24;7.63;;;3.83;;
71253;SDS011;59019;47.638;18.966;2023-06-14T04:58:11;7.73;;;3.90;;
71253;SDS011;59019;47.638;18.966;2023-06-14T05:00:58;8.90;;;4.30;;
71253;SDS011;59019;47.638;18.966;2023-06-14T05:03:45;9.68;;;3.80;;
71253;SDS011;59019;47.638;18.966;2023-06-14T05:06:34;9.45;;;4.32;;
71253;SDS011;59019;47.638;18.966;2023-06-14T05:09:19;8.85;;;4.22;;
71253;SDS011;59019;47.638;18.966;2023-06-14T05:12:06;8.87;;;4.30;;
71253;SDS011;59019;47.638;18.966;2023-06-14T05:14:55;10.00;;;4.80;;
71253;SDS011;59019;47.638;18.966;2023-06-14T05:17:45;8.80;;;4.57;;
71253;SDS011;59019;47.638;18.966;2023-06-14T05:20:38;9.38;;;4.50;;
71253;SDS011;59019;47.638;18.966;2023-06-14T05:23:24;8.82;;;5.00;;
71253;SDS011;59019;47.638;18.966;2023-06-14T05:26:10;9.50;;;4.63;;
71253;SDS011;59019;47.638;18.966;2023-06-14T05:28:56;9.85;;;4.63;;
71253;SDS011;59019;47.638;18.966;2023-06-14T05:31:43;9.82;;;5.05;;
71253;SDS011;59019;47.638;18.966;2023-06-14T05:34:29;9.38;;;4.90;;
71253;SDS011;59019;47.638;18.966;2023-06-14T05:37:15;9.90;;;5.07;;
71253;SDS011;59019;47.638;18.966;2023-06-14T05:40:01;11.00;;;5.43;;
71253;SDS011;59019;47.638;18.966;2023-06-14T05:42:50;9.05;;;5.00;;
71253;SDS011;59019;47.638;18.966;2023-06-14T05:45:36;10.02;;;5.10;;
71253;SDS011;59019;47.638;18.966;2023-06-14T05:48:22;10.23;;;5.20;;
71253;SDS011;59019;47.638;18.966;2023-06-14T05:51:08;10.73;;;5.18;;
71253;SDS011;59019;47.638;18.966;2023-06-14T05:53:55;9.77;;;4.97;;
71253;SDS011;59019;47.638;18.966;2023-06-14T05:56:41;9.38;;;5.22;;
71253;SDS011;59019;47.638;18.966;2023-06-14T05:59:27;9.32;;;4.82;;
71253;SDS011;59019;47.638;18.966;2023-06-14T06:02:13;8.60;;;5.00;;
71253;SDS011;59019;47.638;18.966;2023-06-14T06:04:59;9.60;;;5.28;;
71253;SDS011;59019;47.638;18.966;2023-06-14T06:07:45;10.10;;;5.07;;
71253;SDS011;59019;47.638;18.966;2023-06-14T06:10:31;9.82;;;5.32;;
71253;SDS011;59019;47.638;18.966;2023-06-14T06:13:17;10.05;;;5.47;;
71253;SDS011;59019;47.638;18.966;2023-06-14T06:16:03;10.00;;;5.25;;
71253;SDS011;59019;47.638;18.966;2023-06-14T06:18:50;9.15;;;5.03;;
71253;SDS011;59019;47.638;18.966;2023-06-14T06:21:35;9.07;;;5.23;;
71253;SDS011;59019;47.638;18.966;2023-06-14T06:24:21;10.90;;;5.20;;
71253;SDS011;59019;47.638;18.966;2023-06-14T06:27:07;10.48;;;5.53;;
71253;SDS011;59019;47.638;18.966;2023-06-14T06:29:53;11.65;;;5.60;;
71253;SDS011;59019;47.638;18.966;2023-06-14T06:32:39;10.82;;;5.28;;
71253;SDS011;59019;47.638;18.966;2023-06-14T06:35:25;10.00;;;5.50;;
71253;SDS011;59019;47.638;18.966;2023-06-14T06:38:11;9.75;;;5.30;;
71253;SDS011;59019;47.638;18.966;2023-06-14T06:40:57;10.02;;;5.53;;
71253;SDS011;59019;47.638;18.966;2023-06-14T06:43:43;10.35;;;5.60;;
71253;SDS011;59019;47.638;18.966;2023-06-14T06:46:28;9.90;;;5.25;;
71253;SDS011;59019;47.638;18.966;2023-06-14T06:49:14;10.97;;;5.43;;
71253;SDS011;59019;47.638;18.966;2023-06-14T06:52:04;9.80;;;4.90;;
71253;SDS011;59019;47.638;18.966;2023-06-14T06:54:51;10.15;;;5.15;;
71253;SDS011;59019;47.638;18.966;2023-06-14T06:57:40;10.75;;;5.50;;
71253;SDS011;59019;47.638;18.966;2023-06-14T07:00:26;11.70;;;5.63;;
71253;SDS011;59019;47.638;18.966;2023-06-14T07:03:12;11.43;;;5.60;;
71253;SDS011;59019;47.638;18.966;2023-06-14T07:05:58;13.73;;;6.03;;
71253;SDS011;59019;47.638;18.966;2023-06-14T07:08:44;11.27;;;5.65;;
71253;SDS011;59019;47.638;18.966;2023-06-14T07:11:30;11.07;;;5.78;;
71253;SDS011;59019;47.638;18.966;2023-06-14T07:14:16;11.50;;;5.80;;
71253;SDS011;59019;47.638;18.966;2023-06-14T07:17:02;11.80;;;6.07;;
71253;SDS011;59019;47.638;18.966;2023-06-14T07:19:48;11.85;;;5.47;;
71253;SDS011;59019;47.638;18.966;2023-06-14T07:22:33;9.75;;;5.10;;
71253;SDS011;59019;47.638;18.966;2023-06-14T07:25:19;10.75;;;5.80;;
71253;SDS011;59019;47.638;18.966;2023-06-14T07:28:05;11.25;;;5.55;;
71253;SDS011;59019;47.638;18.966;2023-06-14T07:30:51;10.47;;;5.50;;
71253;SDS011;59019;47.638;18.966;2023-06-14T07:33:37;11.27;;;5.97;;
71253;SDS011;59019;47.638;18.966;2023-06-14T07:36:23;9.52;;;5.22;;
71253;SDS011;59019;47.638;18.966;2023-06-14T07:39:09;9.00;;;5.35;;
71253;SDS011;59019;47.638;18.966;2023-06-14T07:41:55;8.90;;;5.07;;
71253;SDS011;59019;47.638;18.966;2023-06-14T07:44:41;11.70;;;4.90;;
71253;SDS011;59019;47.638;18.966;2023-06-14T07:47:27;9.75;;;5.18;;
71253;SDS011;59019;47.638;18.966;2023-06-14T07:50:13;9.13;;;5.00;;
71253;SDS011;59019;47.638;18.966;2023-06-14T07:52:59;8.90;;;4.93;;
71253;SDS011;59019;47.638;18.966;2023-06-14T07:55:45;9.32;;;5.07;;
71253;SDS011;59019;47.638;18.966;2023-06-14T07:58:32;8.60;;;4.43;;
71253;SDS011;59019;47.638;18.966;2023-06-14T08:01:18;8.98;;;4.60;;
71253;SDS011;59019;47.638;18.966;2023-06-14T08:04:05;7.97;;;4.40;;
71253;SDS011;59019;47.638;18.966;2023-06-14T08:06:51;9.90;;;4.80;;
71253;SDS011;59019;47.638;18.966;2023-06-14T08:09:37;8.15;;;4.72;;
71253;SDS011;59019;47.638;18.966;2023-06-14T08:12:26;9.73;;;4.70;;
71253;SDS011;59019;47.638;18.966;2023-06-14T08:15:12;9.27;;;4.90;;
71253;SDS011;59019;47.638;18.966;2023-06-14T08:17:57;7.47;;;4.10;;
71253;SDS011;59019;47.638;18.966;2023-06-14T08:20:45;10.43;;;4.90;;
71253;SDS011;59019;47.638;18.966;2023-06-14T08:23:31;9.98;;;4.70;;
71253;SDS011;59019;47.638;18.966;2023-06-14T08:26:17;8.80;;;4.63;;
71253;SDS011;59019;47.638;18.966;2023-06-14T08:29:03;8.80;;;4.55;;
71253;SDS011;59019;47.638;18.966;2023-06-14T08:31:49;8.55;;;4.95;;
71253;SDS011;59019;47.638;18.966;2023-06-14T08:34:35;10.00;;;4.97;;
71253;SDS011;59019;47.638;18.966;2023-06-14T08:37:21;9.63;;;4.80;;
71253;SDS011;59019;47.638;18.966;2023-06-14T08:43:06;8.85;;;4.38;;
71253;SDS011;59019;47.638;18.966;2023-06-14T08:45:54;8.93;;;4.75;;
71253;SDS011;59019;47.638;18.966;2023-06-14T08:48:44;9.57;;;5.13;;
71253;SDS011;59019;47.638;18.966;2023-06-14T08:51:32;9.00;;;5.68;;
71253;SDS011;59019;47.638;18.966;2023-06-14T08:54:21;10.30;;;5.17;;
71253;SDS011;59019;47.638;18.966;2023-06-14T08:57:11;9.38;;;4.60;;
71253;SDS011;59019;47.638;18.966;2023-06-14T09:00:00;10.07;;;5.20;;
71253;SDS011;59019;47.638;18.966;2023-06-14T09:02:55;8.55;;;4.57;;
71253;SDS011;59019;47.638;18.966;2023-06-14T09:05:43;9.82;;;4.95;;
71253;SDS011;59019;47.638;18.966;2023-06-14T09:08:29;11.20;;;5.40;;
71253;SDS011;59019;47.638;18.966;2023-06-14T09:11:17;9.70;;;4.90;;
71253;SDS011;59019;47.638;18.966;2023-06-14T09:14:06;13.40;;;7.32;;
71253;SDS011;59019;47.638;18.966;2023-06-14T09:16:52;12.32;;;5.28;;
71253;SDS011;59019;47.638;18.966;2023-06-14T09:19:39;7.95;;;4.78;;
71253;SDS011;59019;47.638;18.966;2023-06-14T09:22:25;9.40;;;4.77;;
71253;SDS011;59019;47.638;18.966;2023-06-14T09:25:11;7.30;;;4.25;;
71253;SDS011;59019;47.638;18.966;2023-06-14T09:28:06;9.35;;;4.25;;
71253;SDS011;59019;47.638;18.966;2023-06-14T09:30:53;8.10;;;4.28;;
71253;SDS011;59019;47.638;18.966;2023-06-14T09:33:49;7.53;;;3.90;;
71253;SDS011;59019;47.638;18.966;2023-06-14T09:36:36;7.20;;;4.23;;
71253;SDS011;59019;47.638;18.966;2023-06-14T09:39:22;6.38;;;4.18;;
71253;SDS011;59019;47.638;18.966;2023-06-14T09:42:19;7.60;;;4.25;;
71253;SDS011;59019;47.638;18.966;2023-06-14T09:45:05;7.82;;;4.15;;
71253;SDS011;59019;47.638;18.966;2023-06-14T09:47:51;6.60;;;3.25;;
71253;SDS011;59019;47.638;18.966;2023-06-14T09:50:37;7.30;;;2.90;;
71253;SDS011;59019;47.638;18.966;2023-06-14T09:53:24;4.43;;;2.42;;
71253;SDS011;59019;47.638;18.966;2023-06-14T09:56:11;5.03;;;2.83;;
71253;SDS011;59019;47.638;18.966;2023-06-14T09:58:59;5.47;;;2.70;;
71253;SDS011;59019;47.638;18.966;2023-06-14T10:01:45;5.63;;;2.72;;
71253;SDS011;59019;47.638;18.966;2023-06-14T10:04:32;5.37;;;2.53;;
71253;SDS011;59019;47.638;18.966;2023-06-14T10:07:20;6.25;;;2.85;;
71253;SDS011;59019;47.638;18.966;2023-06-14T10:10:06;7.03;;;2.70;;
71253;SDS011;59019;47.638;18.966;2023-06-14T10:12:53;7.47;;;2.67;;
71253;SDS011;59019;47.638;18.966;2023-06-14T10:22:02;6.68;;;3.10;;
71253;SDS011;59019;47.638;18.966;2023-06-14T10:24:53;8.65;;;2.75;;
71253;SDS011;59019;47.638;18.966;2023-06-14T10:27:39;6.30;;;3.10;;
71253;SDS011;59019;47.638;18.966;2023-06-14T10:30:31;7.30;;;3.17;;
71253;SDS011;59019;47.638;18.966;2023-06-14T10:33:17;7.20;;;3.20;;
71253;SDS011;59019;47.638;18.966;2023-06-14T10:39:10;6.07;;;3.20;;
71253;SDS011;59019;47.638;18.966;2023-06-14T10:42:01;6.82;;;3.08;;
71253;SDS011;59019;47.638;18.966;2023-06-14T10:44:50;5.75;;;3.10;;
71253;SDS011;59019;47.638;18.966;2023-06-14T10:47:40;5.77;;;2.73;;
71253;SDS011;59019;47.638;18.966;2023-06-14T10:50:29;6.43;;;3.30;;
71253;SDS011;59019;47.638;18.966;2023-06-14T10:53:21;6.43;;;3.13;;
71253;SDS011;59019;47.638;18.966;2023-06-14T10:56:08;9.55;;;3.63;;
71253;SDS011;59019;47.638;18.966;2023-06-14T10:58:57;11.05;;;3.78;;
71253;SDS011;59019;47.638;18.966;2023-06-14T11:02:06;6.83;;;3.10;;
71253;SDS011;59019;47.638;18.966;2023-06-14T11:04:51;8.88;;;3.40;;
71253;SDS011;59019;47.638;18.966;2023-06-14T11:10:40;7.32;;;3.97;;
71253;SDS011;59019;47.638;18.966;2023-06-14T11:13:27;6.57;;;3.20;;
71253;SDS011;59019;47.638;18.966;2023-06-14T11:16:14;6.40;;;3.57;;
71253;SDS011;59019;47.638;18.966;2023-06-14T11:19:02;7.88;;;3.63;;
71253;SDS011;59019;47.638;18.966;2023-06-14T11:21:51;7.95;;;3.78;;
71253;SDS011;59019;47.638;18.966;2023-06-14T11:24:37;5.93;;;3.13;;
71253;SDS011;59019;47.638;18.966;2023-06-14T11:27:22;5.82;;;3.05;;
71253;SDS011;59019;47.638;18.966;2023-06-14T11:30:13;5.43;;;3.17;;
71253;SDS011;59019;47.638;18.966;2023-06-14T11:32:59;6.10;;;3.10;;
71253;SDS011;59019;47.638;18.966;2023-06-14T11:35:45;6.70;;;3.00;;
71253;SDS011;59019;47.638;18.966;2023-06-14T11:38:34;5.18;;;2.53;;
71253;SDS011;59019;47.638;18.966;2023-06-14T11:41:24;5.35;;;2.92;;
71253;SDS011;59019;47.638;18.966;2023-06-14T11:44:10;4.80;;;2.60;;
71253;SDS011;59019;47.638;18.966;2023-06-14T11:46:57;4.70;;;2.47;;
71253;SDS011;59019;47.638;18.966;2023-06-14T11:49:43;6.45;;;2.50;;
71253;SDS011;59019;47.638;18.966;2023-06-14T11:52:28;4.72;;;2.20;;
71253;SDS011;59019;47.638;18.966;2023-06-14T11:55:15;5.28;;;2.40;;
71253;SDS011;59019;47.638;18.966;2023-06-14T11:58:01;4.60;;;2.20;;
71253;SDS011;59019;47.638;18.966;2023-06-14T12:00:48;4.88;;;2.28;;
71253;SDS011;59019;47.638;18.966;2023-06-14T12:03:35;5.97;;;2.30;;
71253;SDS011;59019;47.638;18.966;2023-06-14T12:06:27;5.28;;;2.58;;
71253;SDS011;59019;47.638;18.966;2023-06-14T12:09:18;4.28;;;2.20;;
71253;SDS011;59019;47.638;18.966;2023-06-14T12:12:05;5.90;;;2.40;;
71253;SDS011;59019;47.638;18.966;2023-06-14T12:14:52;4.63;;;2.28;;
71253;SDS011;59019;47.638;18.966;2023-06-14T12:17:39;6.43;;;2.38;;
71253;SDS011;59019;47.638;18.966;2023-06-14T12:20:29;5.80;;;2.50;;
71253;SDS011;59019;47.638;18.966;2023-06-14T12:23:16;4.90;;;2.55;;
71253;SDS011;59019;47.638;18.966;2023-06-14T12:26:02;4.93;;;2.60;;
71253;SDS011;59019;47.638;18.966;2023-06-14T12:28:51;5.05;;;2.47;;
71253;SDS011;59019;47.638;18.966;2023-06-14T12:31:37;5.65;;;2.60;;
71253;SDS011;59019;47.638;18.966;2023-06-14T12:34:26;6.22;;;2.50;;
71253;SDS011;59019;47.638;18.966;2023-06-14T12:37:12;5.75;;;2.20;;
71253;SDS011;59019;47.638;18.966;2023-06-14T12:39:58;4.63;;;2.30;;
71253;SDS011;59019;47.638;18.966;2023-06-14T12:42:45;6.07;;;2.53;;
71253;SDS011;59019;47.638;18.966;2023-06-14T12:45:34;5.55;;;2.50;;
71253;SDS011;59019;47.638;18.966;2023-06-14T12:48:20;5.25;;;2.70;;
71253;SDS011;59019;47.638;18.966;2023-06-14T12:51:06;5.75;;;2.47;;
71253;SDS011;59019;47.638;18.966;2023-06-14T12:53:52;5.40;;;2.83;;
71253;SDS011;59019;47.638;18.966;2023-06-14T12:56:38;6.38;;;2.67;;
71253;SDS011;59019;47.638;18.966;2023-06-14T12:59:24;6.95;;;2.60;;
71253;SDS011;59019;47.638;18.966;2023-06-14T13:02:14;5.15;;;2.50;;
71253;SDS011;59019;47.638;18.966;2023-06-14T13:05:01;7.25;;;2.47;;
71253;SDS011;59019;47.638;18.966;2023-06-14T13:07:49;6.33;;;2.73;;
71253;SDS011;59019;47.638;18.966;2023-06-14T13:10:35;5.38;;;2.70;;
71253;SDS011;59019;47.638;18.966;2023-06-14T13:13:22;5.50;;;2.80;;
71253;SDS011;59019;47.638;18.966;2023-06-14T13:16:08;6.15;;;2.58;;
71253;SDS011;59019;47.638;18.966;2023-06-14T13:18:54;4.90;;;2.40;;
71253;SDS011;59019;47.638;18.966;2023-06-14T13:21:40;4.97;;;2.77;;
71253;SDS011;59019;47.638;18.966;2023-06-14T13:24:27;5.95;;;2.70;;
71253;SDS011;59019;47.638;18.966;2023-06-14T13:27:14;4.80;;;2.20;;
71253;SDS011;59019;47.638;18.966;2023-06-14T13:30:01;5.75;;;2.75;;
71253;SDS011;59019;47.638;18.966;2023-06-14T13:32:47;4.97;;;2.90;;
71253;SDS011;59019;47.638;18.966;2023-06-14T13:35:33;7.10;;;2.67;;
71253;SDS011;59019;47.638;18.966;2023-06-14T13:38:19;4.25;;;2.45;;
71253;SDS011;59019;47.638;18.966;2023-06-14T13:41:06;4.20;;;2.38;;
71253;SDS011;59019;47.638;18.966;2023-06-14T13:43:52;5.82;;;2.58;;
71253;SDS011;59019;47.638;18.966;2023-06-14T13:46:38;5.78;;;2.70;;
71253;SDS011;59019;47.638;18.966;2023-06-14T13:49:23;6.07;;;2.40;;
71253;SDS011;59019;47.638;18.966;2023-06-14T13:52:09;5.32;;;2.80;;
71253;SDS011;59019;47.638;18.966;2023-06-14T13:54:56;5.25;;;2.78;;
71253;SDS011;59019;47.638;18.966;2023-06-14T13:57:42;6.40;;;2.53;;
71253;SDS011;59019;47.638;18.966;2023-06-14T14:00:28;5.68;;;2.38;;
71253;SDS011;59019;47.638;18.966;2023-06-14T14:03:15;5.67;;;2.73;;
71253;SDS011;59019;47.638;18.966;2023-06-14T14:06:01;5.43;;;2.38;;
71253;SDS011;59019;47.638;18.966;2023-06-14T14:08:47;4.50;;;2.33;;
71253;SDS011;59019;47.638;18.966;2023-06-14T14:11:33;6.20;;;2.50;;
71253;SDS011;59019;47.638;18.966;2023-06-14T14:14:19;4.45;;;2.30;;
71253;SDS011;59019;47.638;18.966;2023-06-14T14:17:05;4.60;;;2.57;;
71253;SDS011;59019;47.638;18.966;2023-06-14T14:19:52;5.63;;;2.60;;
71253;SDS011;59019;47.638;18.966;2023-06-14T14:22:38;7.32;;;2.70;;
71253;SDS011;59019;47.638;18.966;2023-06-14T14:25:23;7.05;;;2.75;;
71253;SDS011;59019;47.638;18.966;2023-06-14T14:28:09;5.50;;;2.63;;
71253;SDS011;59019;47.638;18.966;2023-06-14T14:30:56;6.33;;;2.50;;
71253;SDS011;59019;47.638;18.966;2023-06-14T14:33:42;4.65;;;2.45;;
71253;SDS011;59019;47.638;18.966;2023-06-14T14:36:28;4.53;;;2.38;;
71253;SDS011;59019;47.638;18.966;2023-06-14T14:39:14;7.32;;;2.80;;
71253;SDS011;59019;47.638;18.966;2023-06-14T14:41:59;6.00;;;3.00;;
71253;SDS011;59019;47.638;18.966;2023-06-14T14:44:45;5.53;;;2.70;;
71253;SDS011;59019;47.638;18.966;2023-06-14T14:47:31;7.20;;;2.80;;
71253;SDS011;59019;47.638;18.966;2023-06-14T14:50:17;4.55;;;2.35;;
71253;SDS011;59019;47.638;18.966;2023-06-14T14:53:03;5.53;;;2.80;;
71253;SDS011;59019;47.638;18.966;2023-06-14T14:55:50;6.05;;;2.42;;
71253;SDS011;59019;47.638;18.966;2023-06-14T14:58:36;6.33;;;2.50;;
71253;SDS011;59019;47.638;18.966;2023-06-14T15:01:21;5.13;;;2.50;;
71253;SDS011;59019;47.638;18.966;2023-06-14T15:04:07;4.50;;;2.45;;
71253;SDS011;59019;47.638;18.966;2023-06-14T15:06:53;6.60;;;2.47;;
71253;SDS011;59019;47.638;18.966;2023-06-14T15:09:39;6.43;;;2.40;;
71253;SDS011;59019;47.638;18.966;2023-06-14T15:12:25;5.80;;;2.33;;
71253;SDS011;59019;47.638;18.966;2023-06-14T15:15:11;4.85;;;2.35;;
71253;SDS011;59019;47.638;18.966;2023-06-14T15:17:57;4.90;;;2.45;;
71253;SDS011;59019;47.638;18.966;2023-06-14T15:20:44;4.78;;;2.15;;
71253;SDS011;59019;47.638;18.966;2023-06-14T15:23:30;4.65;;;2.30;;
71253;SDS011;59019;47.638;18.966;2023-06-14T15:26:17;5.17;;;2.30;;
71253;SDS011;59019;47.638;18.966;2023-06-14T15:29:02;4.70;;;2.30;;
71253;SDS011;59019;47.638;18.966;2023-06-14T15:31:48;5.68;;;2.45;;
71253;SDS011;59019;47.638;18.966;2023-06-14T15:34:34;6.03;;;2.22;;
71253;SDS011;59019;47.638;18.966;2023-06-14T15:37:22;4.60;;;2.28;;
71253;SDS011;59019;47.638;18.966;2023-06-14T15:40:08;5.33;;;2.10;;
71253;SDS011;59019;47.638;18.966;2023-06-14T15:42:54;4.35;;;2.10;;
71253;SDS011;59019;47.638;18.966;2023-06-14T15:45:40;5.28;;;2.22;;
71253;SDS011;59019;47.638;18.966;2023-06-14T15:48:28;5.05;;;2.28;;
71253;SDS011;59019;47.638;18.966;2023-06-14T15:51:15;4.75;;;2.20;;
71253;SDS011;59019;47.638;18.966;2023-06-14T15:54:01;4.97;;;1.93;;
71253;SDS011;59019;47.638;18.966;2023-06-14T15:56:47;5.25;;;2.40;;
71253;SDS011;59019;47.638;18.966;2023-06-14T15:59:33;7.45;;;2.10;;
71253;SDS011;59019;47.638;18.966;2023-06-14T16:02:20;4.68;;;2.00;;
71253;SDS011;59019;47.638;18.966;2023-06-14T16:05:05;5.75;;;2.55;;
71253;SDS011;59019;47.638;18.966;2023-06-14T16:07:51;6.93;;;2.50;;
71253;SDS011;59019;47.638;18.966;2023-06-14T16:10:38;5.38;;;2.20;;
71253;SDS011;59019;47.638;18.966;2023-06-14T16:13:24;6.25;;;2.10;;
71253;SDS011;59019;47.638;18.966;2023-06-14T16:16:09;4.60;;;2.20;;
71253;SDS011;59019;47.638;18.966;2023-06-14T16:18:55;7.15;;;2.20;;
71253;SDS011;59019;47.638;18.966;2023-06-14T16:21:41;4.73;;;2.20;;
71253;SDS011;59019;47.638;18.966;2023-06-14T16:24:27;4.72;;;2.22;;
71253;SDS011;59019;47.638;18.966;2023-06-14T16:27:13;4.53;;;2.50;;
71253;SDS011;59019;47.638;18.966;2023-06-14T16:30:00;4.50;;;2.13;;
71253;SDS011;59019;47.638;18.966;2023-06-14T16:32:45;4.88;;;2.50;;
71253;SDS011;59019;47.638;18.966;2023-06-14T16:35:31;5.57;;;2.40;;
71253;SDS011;59019;47.638;18.966;2023-06-14T16:38:18;5.50;;;2.50;;
71253;SDS011;59019;47.638;18.966;2023-06-14T16:41:05;4.88;;;2.33;;
71253;SDS011;59019;47.638;18.966;2023-06-14T16:43:51;4.60;;;2.20;;
71253;SDS011;59019;47.638;18.966;2023-06-14T16:46:37;4.75;;;2.20;;
71253;SDS011;59019;47.638;18.966;2023-06-14T16:49:23;5.00;;;2.30;;